createdAt,value
2023-01-26T00:00:44.047Z,20.90
2023-01-26T00:01:46.305Z,19.20
2023-01-26T00:02:48.540Z,21.17
2023-01-26T00:03:51.457Z,19.85
2023-01-26T00:04:53.806Z,17.92
2023-01-26T00:05:56.026Z,19.13
2023-01-26T00:06:58.307Z,19.60
2023-01-26T00:08:00.565Z,19.75
2023-01-26T00:09:02.910Z,20.55
2023-01-26T00:10:05.459Z,19.88
2023-01-26T00:11:10.389Z,19.50
2023-01-26T00:12:12.686Z,20.48
2023-01-26T00:13:15.189Z,17.42
2023-01-26T00:14:17.399Z,21.45
2023-01-26T00:15:19.683Z,20.73
2023-01-26T00:16:22.600Z,19.05
2023-01-26T00:17:27.624Z,21.50
2023-01-26T00:18:31.088Z,19.30
2023-01-26T00:19:33.338Z,20.92
2023-01-26T00:20:35.738Z,19.48
2023-01-26T00:21:38.075Z,19.13
2023-01-26T00:22:40.419Z,19.70
2023-01-26T00:23:43.028Z,17.50
2023-01-26T00:24:45.339Z,20.35
2023-01-26T00:25:47.628Z,20.35
2023-01-26T00:26:49.827Z,20.95
2023-01-26T00:27:52.039Z,20.75
2023-01-26T00:28:55.008Z,22.02
2023-01-26T00:29:57.346Z,21.00
2023-01-26T00:31:04.630Z,20.95
2023-01-26T00:32:06.943Z,20.50
2023-01-26T00:33:09.177Z,19.52
2023-01-26T00:34:11.490Z,21.20
2023-01-26T00:35:17.233Z,19.75
2023-01-26T00:36:19.596Z,21.10
2023-01-26T00:37:21.997Z,20.60
2023-01-26T00:38:26.271Z,20.35
2023-01-26T00:39:28.572Z,21.02
2023-01-26T00:40:31.283Z,19.33
2023-01-26T00:41:52.149Z,18.30
2023-01-26T00:42:54.713Z,21.75
2023-01-26T00:43:57.040Z,18.17
2023-01-26T00:44:59.322Z,20.83
2023-01-26T00:46:01.585Z,21.05
2023-01-26T00:47:04.149Z,19.50
2023-01-26T00:48:07.077Z,19.30
2023-01-26T00:49:09.382Z,20.83
2023-01-26T00:50:12.193Z,19.13
2023-01-26T00:51:14.637Z,20.23
2023-01-26T00:52:16.988Z,20.27
2023-01-26T00:53:19.618Z,18.48
2023-01-26T00:54:21.876Z,20.88
2023-01-26T00:55:24.408Z,19.30
2023-01-26T00:56:28.071Z,19.40
2023-01-26T00:57:30.439Z,19.35
2023-01-26T00:58:32.687Z,18.70
2023-01-26T00:59:34.942Z,19.63
2023-01-26T01:00:38.763Z,19.77
2023-01-26T01:01:41.160Z,21.02
2023-01-26T01:02:44.246Z,20.52
2023-01-26T01:03:46.688Z,18.67
2023-01-26T01:04:49.025Z,20.92
2023-01-26T01:05:52.235Z,22.02
2023-01-26T01:06:54.463Z,19.70
2023-01-26T01:07:57.323Z,23.23
2023-01-26T01:08:59.616Z,23.15
2023-01-26T01:10:01.905Z,21.40
2023-01-26T01:11:09.853Z,22.17
2023-01-26T01:12:12.334Z,22.85
2023-01-26T01:13:14.575Z,21.92
2023-01-26T01:14:16.849Z,20.42
2023-01-26T01:15:19.552Z,22.05
2023-01-26T01:16:22.163Z,21.20
2023-01-26T01:17:25.527Z,24.88
2023-01-26T01:18:27.775Z,22.40
2023-01-26T01:19:30.076Z,21.55
2023-01-26T01:20:32.381Z,22.90
2023-01-26T01:21:36.326Z,23.50
2023-01-26T01:22:38.756Z,22.95
2023-01-26T01:23:41.539Z,22.50
2023-01-26T01:24:43.788Z,22.75
2023-01-26T01:25:46.560Z,21.15
2023-01-26T01:26:48.795Z,23.60
2023-01-26T01:27:51.207Z,23.55
2023-01-26T01:28:55.820Z,23.98
2023-01-26T01:29:58.309Z,22.52
2023-01-26T01:31:03.719Z,22.00
2023-01-26T01:32:06.164Z,21.98
2023-01-26T01:33:08.546Z,23.05
2023-01-26T01:34:10.879Z,22.80
2023-01-26T01:35:13.126Z,23.48
2023-01-26T01:36:16.799Z,22.58
2023-01-26T01:37:19.083Z,21.75
2023-01-26T01:38:21.304Z,19.23
2023-01-26T01:39:23.701Z,23.30
2023-01-26T01:40:26.451Z,21.60
2023-01-26T01:41:28.727Z,21.92
2023-01-26T01:42:33.103Z,20.95
2023-01-26T01:43:36.568Z,22.35
2023-01-26T01:44:39.119Z,21.02
2023-01-26T01:45:49.995Z,22.10
2023-01-26T01:47:04.479Z,21.75
2023-01-26T01:48:13.264Z,18.25
2023-01-26T01:49:26.987Z,17.95
2023-01-26T01:50:36.910Z,18.50
2023-01-26T01:51:45.989Z,19.23
2023-01-26T01:52:49.090Z,17.02
2023-01-26T01:53:52.813Z,19.25
2023-01-26T01:55:02.478Z,18.00
2023-01-26T01:56:11.283Z,18.75
2023-01-26T01:57:27.786Z,18.48
2023-01-26T01:58:34.056Z,15.45
2023-01-26T01:59:36.419Z,18.40
2023-01-26T02:00:38.705Z,17.48
2023-01-26T02:01:42.228Z,19.52
2023-01-26T02:03:06.113Z,17.25
2023-01-26T02:04:09.051Z,16.90
2023-01-26T02:05:24.577Z,16.83
2023-01-26T02:06:42.449Z,18.48
2023-01-26T02:07:45.485Z,15.40
2023-01-26T02:08:52.527Z,18.60
2023-01-26T02:10:14.273Z,17.10
2023-01-26T02:11:32.576Z,17.20
2023-01-26T02:12:37.124Z,17.17
2023-01-26T02:13:41.378Z,18.27
2023-01-26T02:14:44.099Z,19.52
2023-01-26T02:15:47.119Z,18.13
2023-01-26T02:16:49.362Z,19.58
2023-01-26T02:17:53.181Z,17.85
2023-01-26T02:18:55.537Z,18.40
2023-01-26T02:20:08.538Z,17.83
2023-01-26T02:21:13.929Z,17.90
2023-01-26T02:22:39.323Z,17.67
2023-01-26T02:24:12.888Z,16.83
2023-01-26T02:25:36.121Z,18.70
2023-01-26T02:26:38.931Z,17.83
2023-01-26T02:27:41.716Z,19.30
2023-01-26T02:28:46.029Z,15.80
2023-01-26T02:29:48.680Z,19.00
2023-01-26T02:30:51.887Z,18.58
2023-01-26T02:31:55.119Z,18.45
2023-01-26T02:32:59.105Z,16.42
2023-01-26T02:34:01.370Z,17.92
2023-01-26T02:35:03.865Z,16.50
2023-01-26T02:36:07.650Z,16.13
2023-01-26T02:37:14.880Z,16.85
2023-01-26T02:38:21.045Z,17.23
2023-01-26T02:40:01.527Z,16.38
2023-01-26T02:41:07.383Z,16.63
2023-01-26T02:42:28.899Z,16.83
2023-01-26T02:43:32.134Z,14.07
2023-01-26T02:44:34.465Z,14.88
2023-01-26T02:45:38.415Z,16.33
2023-01-26T02:46:42.613Z,15.40
2023-01-26T02:47:45.395Z,15.40
2023-01-26T02:49:06.401Z,14.90
2023-01-26T02:50:10.216Z,12.43
2023-01-26T02:51:13.581Z,13.57
2023-01-26T02:52:18.128Z,17.83
2023-01-26T02:53:22.391Z,16.08
2023-01-26T02:54:45.028Z,15.23
2023-01-26T02:55:47.249Z,14.50
2023-01-26T02:56:49.489Z,14.63
2023-01-26T02:57:54.705Z,14.43
2023-01-26T02:58:57.513Z,14.13
2023-01-26T02:59:59.861Z,14.90
2023-01-26T03:01:02.253Z,14.80
2023-01-26T03:02:04.636Z,14.13
2023-01-26T03:03:18.504Z,13.55
2023-01-26T03:04:20.968Z,13.30
2023-01-26T03:05:23.205Z,13.52
2023-01-26T03:06:26.488Z,13.98
2023-01-26T03:07:29.249Z,14.27
2023-01-26T03:08:31.766Z,15.43
2023-01-26T03:09:34.020Z,13.65
2023-01-26T03:10:36.887Z,14.18
2023-01-26T03:11:42.274Z,14.60
2023-01-26T03:12:45.877Z,14.13
2023-01-26T03:13:48.121Z,14.20
2023-01-26T03:15:10.439Z,14.73
2023-01-26T03:16:13.547Z,12.85
2023-01-26T03:17:16.669Z,12.93
2023-01-26T03:18:38.733Z,13.40
2023-01-26T03:19:59.663Z,12.70
2023-01-26T03:21:44.279Z,11.88
2023-01-26T03:23:07.308Z,11.88
2023-01-26T03:24:31.998Z,14.07
2023-01-26T03:25:55.501Z,12.27
2023-01-26T03:27:16.553Z,13.75
2023-01-26T03:28:22.447Z,13.90
2023-01-26T03:29:30.513Z,15.05
2023-01-26T03:30:35.643Z,12.63
2023-01-26T03:31:38.294Z,14.40
2023-01-26T03:32:40.886Z,12.25
2023-01-26T03:33:46.795Z,13.73
2023-01-26T03:34:49.066Z,14.45
2023-01-26T03:35:54.651Z,12.50
2023-01-26T03:36:58.328Z,12.90
2023-01-26T03:38:02.262Z,12.38
2023-01-26T03:39:34.151Z,10.23
2023-01-26T03:40:55.603Z,11.82
2023-01-26T03:42:16.972Z,11.70
2023-01-26T03:43:37.710Z,11.40
2023-01-26T03:44:59.025Z,11.73
2023-01-26T03:46:22.653Z,10.15
2023-01-26T03:47:43.680Z,10.10
2023-01-26T03:49:04.565Z,12.63
2023-01-26T03:50:25.683Z,9.23
2023-01-26T03:51:48.142Z,10.07
2023-01-26T03:53:09.119Z,8.18
2023-01-26T03:54:30.034Z,9.60
2023-01-26T03:55:51.053Z,8.73
2023-01-26T03:56:53.848Z,9.52
2023-01-26T03:57:56.079Z,8.93
2023-01-26T03:59:15.366Z,11.10
2023-01-26T04:00:19.048Z,9.10
2023-01-26T04:01:28.089Z,9.57
2023-01-26T04:02:52.053Z,9.25
2023-01-26T04:04:15.503Z,9.80
2023-01-26T04:05:37.541Z,9.57
2023-01-26T04:07:01.325Z,10.35
2023-01-26T04:08:28.593Z,9.32
2023-01-26T04:09:34.010Z,9.60
2023-01-26T04:10:36.380Z,11.25
2023-01-26T04:11:40.182Z,9.93
2023-01-26T04:12:42.637Z,9.15
2023-01-26T04:14:09.110Z,9.25
2023-01-26T04:15:29.888Z,10.32
2023-01-26T04:16:50.880Z,9.80
2023-01-26T04:18:11.757Z,9.98
2023-01-26T04:19:32.852Z,8.15
2023-01-26T04:20:54.069Z,8.90
2023-01-26T04:21:58.675Z,9.35
2023-01-26T04:23:01.021Z,7.75
2023-01-26T04:24:16.627Z,9.73
2023-01-26T04:25:20.950Z,10.23
2023-01-26T04:26:34.926Z,8.68
2023-01-26T04:27:39.137Z,9.55
2023-01-26T04:28:41.745Z,10.02
2023-01-26T04:29:44.062Z,9.13
2023-01-26T04:30:46.402Z,9.10
2023-01-26T04:31:48.989Z,8.60
2023-01-26T04:32:55.082Z,8.38
2023-01-26T04:33:57.400Z,9.32
2023-01-26T04:34:59.638Z,9.80
2023-01-26T04:36:05.233Z,9.75
2023-01-26T04:37:09.190Z,9.60
2023-01-26T04:38:19.612Z,10.00
2023-01-26T04:39:22.210Z,9.18
2023-01-26T04:40:28.752Z,7.70
2023-01-26T04:41:32.261Z,8.20
2023-01-26T04:42:39.514Z,8.00
2023-01-26T04:43:42.225Z,8.07
2023-01-26T04:44:44.623Z,9.73
2023-01-26T04:46:00.886Z,7.78
2023-01-26T04:47:04.480Z,8.77
2023-01-26T04:48:06.735Z,8.50
2023-01-26T04:49:09.184Z,9.27
2023-01-26T04:50:11.973Z,8.80
2023-01-26T04:51:17.477Z,8.60
2023-01-26T04:52:19.704Z,10.00
2023-01-26T04:53:22.033Z,8.70
2023-01-26T04:54:24.309Z,7.88
2023-01-26T04:55:27.528Z,8.93
2023-01-26T04:56:33.040Z,8.23
2023-01-26T04:57:35.954Z,8.60
2023-01-26T04:58:41.633Z,7.97
2023-01-26T04:59:44.103Z,8.95
2023-01-26T05:00:54.350Z,8.88
2023-01-26T05:01:56.743Z,9.20
2023-01-26T05:02:59.040Z,8.20
2023-01-26T05:04:03.276Z,8.25
2023-01-26T05:05:07.517Z,8.82
2023-01-26T05:06:09.854Z,8.73
2023-01-26T05:07:12.270Z,9.63
2023-01-26T05:08:14.560Z,8.75
2023-01-26T05:09:16.928Z,7.93
2023-01-26T05:10:21.084Z,9.80
2023-01-26T05:11:34.581Z,9.07
2023-01-26T05:13:12.299Z,8.30
2023-01-26T05:14:37.582Z,8.45
2023-01-26T05:16:00.021Z,7.38
2023-01-26T05:17:23.479Z,7.50
2023-01-26T05:18:44.541Z,7.15
2023-01-26T05:20:05.693Z,7.75
2023-01-26T05:21:15.031Z,8.60
2023-01-26T05:22:21.984Z,8.40
2023-01-26T05:23:43.009Z,7.38
2023-01-26T05:25:11.472Z,7.50
2023-01-26T05:26:22.756Z,6.65
2023-01-26T05:27:32.044Z,9.30
2023-01-26T05:28:35.940Z,7.30
2023-01-26T05:29:38.252Z,8.90
2023-01-26T05:30:40.662Z,6.63
2023-01-26T05:31:42.954Z,7.43
2023-01-26T05:32:45.371Z,8.18
2023-01-26T05:33:48.849Z,8.00
2023-01-26T05:34:56.975Z,8.95
2023-01-26T05:36:07.468Z,7.28
2023-01-26T05:37:10.223Z,7.55
2023-01-26T05:38:15.223Z,8.05
2023-01-26T05:39:17.486Z,8.20
2023-01-26T05:40:19.941Z,7.70
2023-01-26T05:41:22.222Z,8.00
2023-01-26T05:42:44.061Z,7.50
2023-01-26T05:43:55.683Z,6.95
2023-01-26T05:45:12.030Z,6.78
2023-01-26T05:46:15.203Z,7.60
2023-01-26T05:47:19.951Z,6.45
2023-01-26T05:48:24.747Z,6.50
2023-01-26T05:49:28.097Z,7.38
2023-01-26T05:50:30.929Z,7.22
2023-01-26T05:51:54.665Z,7.38
2023-01-26T05:52:57.158Z,6.72
2023-01-26T05:53:59.458Z,6.90
2023-01-26T05:55:02.478Z,7.50
2023-01-26T05:56:04.979Z,7.07
2023-01-26T05:57:10.172Z,6.40
2023-01-26T05:58:16.435Z,7.00
2023-01-26T05:59:19.106Z,7.00
2023-01-26T06:00:22.434Z,7.22
2023-01-26T06:01:32.274Z,6.40
2023-01-26T06:02:37.689Z,5.55
2023-01-26T06:03:39.956Z,6.72
2023-01-26T06:04:42.532Z,7.53
2023-01-26T06:05:44.963Z,7.00
2023-01-26T06:06:54.698Z,7.47
2023-01-26T06:07:59.238Z,7.45
2023-01-26T06:09:06.622Z,8.02
2023-01-26T06:10:09.795Z,7.33
2023-01-26T06:11:32.851Z,7.78
2023-01-26T06:12:44.309Z,7.03
2023-01-26T06:14:11.813Z,6.43
2023-01-26T06:15:15.135Z,6.60
2023-01-26T06:16:20.129Z,7.90
2023-01-26T06:17:23.935Z,6.70
2023-01-26T06:18:31.962Z,6.65
2023-01-26T06:19:36.240Z,6.72
2023-01-26T06:20:38.536Z,5.53
2023-01-26T06:21:41.780Z,7.10
2023-01-26T06:22:44.061Z,7.30
2023-01-26T06:23:46.480Z,7.32
2023-01-26T06:24:49.477Z,8.65
2023-01-26T06:25:52.172Z,8.02
2023-01-26T06:26:54.700Z,6.60
2023-01-26T06:27:58.771Z,7.85
2023-01-26T06:29:04.512Z,7.45
2023-01-26T06:30:12.664Z,6.55
2023-01-26T06:31:16.367Z,7.07
2023-01-26T06:32:21.402Z,7.28
2023-01-26T06:33:30.657Z,6.30
2023-01-26T06:34:34.357Z,6.70
2023-01-26T06:35:37.188Z,6.72
2023-01-26T06:36:42.806Z,6.70
2023-01-26T06:37:51.492Z,7.43
2023-01-26T06:38:56.363Z,7.18
2023-01-26T06:39:59.276Z,7.05
2023-01-26T06:41:06.777Z,5.63
2023-01-26T06:42:09.664Z,6.82
2023-01-26T06:43:13.973Z,6.47
2023-01-26T06:44:18.020Z,6.70
2023-01-26T06:45:24.807Z,6.70
2023-01-26T06:46:27.610Z,6.55
2023-01-26T06:47:30.591Z,6.15
2023-01-26T06:48:35.071Z,6.82
2023-01-26T06:49:39.712Z,6.50
2023-01-26T06:50:48.902Z,5.80
2023-01-26T06:52:05.332Z,7.85
2023-01-26T06:53:33.613Z,5.85
2023-01-26T06:55:05.431Z,7.10
2023-01-26T06:56:28.751Z,6.53
2023-01-26T06:57:49.942Z,6.28
2023-01-26T06:59:15.949Z,7.25
2023-01-26T07:00:45.898Z,6.03
2023-01-26T07:01:55.432Z,7.60
2023-01-26T07:02:57.661Z,6.93
2023-01-26T07:03:59.877Z,6.60
2023-01-26T07:05:02.176Z,7.45
2023-01-26T07:06:06.705Z,8.20
2023-01-26T07:07:09.471Z,7.80
2023-01-26T07:08:12.687Z,6.65
2023-01-26T07:09:15.468Z,8.05
2023-01-26T07:10:18.446Z,6.78
2023-01-26T07:11:22.416Z,7.95
2023-01-26T07:12:37.930Z,7.40
2023-01-26T07:13:45.652Z,7.85
2023-01-26T07:14:48.591Z,7.68
2023-01-26T07:15:53.029Z,7.20
2023-01-26T07:16:58.114Z,7.57
2023-01-26T07:18:01.346Z,7.13
2023-01-26T07:19:04.055Z,6.40
2023-01-26T07:20:08.883Z,7.32
2023-01-26T07:21:14.963Z,6.15
2023-01-26T07:22:18.757Z,7.18
2023-01-26T07:23:21.616Z,6.40
2023-01-26T07:24:24.206Z,6.18
2023-01-26T07:25:26.879Z,7.20
2023-01-26T07:26:29.168Z,6.80
2023-01-26T07:27:31.480Z,6.82
2023-01-26T07:28:38.617Z,6.97
2023-01-26T07:29:42.068Z,6.57
2023-01-26T07:30:44.415Z,5.90
2023-01-26T07:31:46.788Z,7.00
2023-01-26T07:32:49.064Z,6.72
2023-01-26T07:33:51.360Z,6.55
2023-01-26T07:34:53.618Z,6.97
2023-01-26T07:35:57.167Z,5.97
2023-01-26T07:36:59.551Z,6.25
2023-01-26T07:38:04.549Z,6.65
2023-01-26T07:39:08.661Z,6.07
2023-01-26T07:40:11.779Z,6.05
2023-01-26T07:41:17.037Z,5.85
2023-01-26T07:42:20.169Z,7.22
2023-01-26T07:43:37.753Z,6.72
2023-01-26T07:44:45.022Z,7.15
2023-01-26T07:45:51.810Z,7.03
2023-01-26T07:46:54.865Z,6.10
2023-01-26T07:47:58.131Z,7.05
2023-01-26T07:49:00.497Z,6.97
2023-01-26T07:50:02.815Z,8.10
2023-01-26T07:51:05.712Z,6.80
2023-01-26T07:52:09.232Z,6.57
2023-01-26T07:53:14.937Z,6.22
2023-01-26T07:54:17.154Z,7.65
2023-01-26T07:55:20.645Z,5.70
2023-01-26T07:56:22.937Z,7.55
2023-01-26T07:57:25.215Z,6.75
2023-01-26T07:58:27.464Z,6.47
2023-01-26T07:59:30.421Z,6.68
2023-01-26T08:00:32.810Z,6.32
2023-01-26T08:01:35.560Z,6.78
2023-01-26T08:02:37.836Z,6.50
2023-01-26T08:03:40.906Z,6.30
2023-01-26T08:04:43.220Z,6.05
2023-01-26T08:05:47.272Z,6.63
2023-01-26T08:06:52.129Z,8.05
2023-01-26T08:07:59.561Z,7.95
2023-01-26T08:09:01.859Z,6.15
2023-01-26T08:10:04.637Z,5.63
2023-01-26T08:11:07.874Z,5.50
2023-01-26T08:12:10.142Z,6.93
2023-01-26T08:13:12.546Z,6.65
2023-01-26T08:14:14.850Z,6.45
2023-01-26T08:15:17.127Z,5.38
2023-01-26T08:16:19.402Z,5.75
2023-01-26T08:17:21.643Z,6.20
2023-01-26T08:18:23.946Z,5.60
2023-01-26T08:19:26.202Z,4.90
2023-01-26T08:20:28.452Z,5.45
2023-01-26T08:21:30.734Z,4.90
2023-01-26T08:22:33.309Z,5.22
2023-01-26T08:23:35.966Z,5.30
2023-01-26T08:24:38.245Z,5.75
2023-01-26T08:25:40.525Z,7.13
2023-01-26T08:26:42.791Z,4.97
2023-01-26T08:27:45.078Z,5.88
2023-01-26T08:28:48.760Z,4.88
2023-01-26T08:29:51.550Z,5.60
2023-01-26T08:30:53.843Z,5.90
2023-01-26T08:31:56.495Z,5.85
2023-01-26T08:32:58.887Z,6.55
2023-01-26T08:34:01.161Z,6.25
2023-01-26T08:35:03.888Z,4.97
2023-01-26T08:36:09.271Z,6.22
2023-01-26T08:37:11.647Z,5.20
2023-01-26T08:38:13.979Z,6.57
2023-01-26T08:39:16.274Z,5.18
2023-01-26T08:40:18.593Z,5.22
2023-01-26T08:41:20.863Z,5.60
2023-01-26T08:42:23.130Z,6.00
2023-01-26T08:43:25.815Z,6.00
2023-01-26T08:44:28.086Z,6.35
2023-01-26T08:45:34.019Z,5.53
2023-01-26T08:46:36.474Z,6.25
2023-01-26T08:47:38.792Z,4.95
2023-01-26T08:48:41.210Z,7.20
2023-01-26T08:49:43.457Z,5.22
2023-01-26T08:50:46.375Z,8.65
2023-01-26T08:51:48.617Z,7.32
2023-01-26T08:52:50.899Z,5.55
2023-01-26T08:53:54.751Z,5.68
2023-01-26T08:54:57.059Z,6.65
2023-01-26T08:56:06.285Z,5.93
2023-01-26T08:57:08.534Z,6.70
2023-01-26T08:58:10.910Z,6.22
2023-01-26T08:59:13.168Z,5.82
2023-01-26T09:00:15.793Z,6.30
2023-01-26T09:01:18.500Z,6.68
2023-01-26T09:02:20.939Z,5.78
2023-01-26T09:03:23.323Z,5.55
2023-01-26T09:04:27.432Z,5.70
2023-01-26T09:05:33.633Z,5.90
2023-01-26T09:06:35.838Z,5.72
2023-01-26T09:07:38.201Z,7.13
2023-01-26T09:08:40.550Z,7.00
2023-01-26T09:09:42.826Z,6.38
2023-01-26T09:10:47.819Z,6.60
2023-01-26T09:11:50.110Z,6.72
2023-01-26T09:12:52.385Z,7.10
2023-01-26T09:13:56.747Z,5.72
2023-01-26T09:14:59.745Z,6.00
2023-01-26T09:16:07.024Z,4.68
2023-01-26T09:17:09.400Z,5.93
2023-01-26T09:18:11.817Z,6.10
2023-01-26T09:19:14.032Z,4.97
2023-01-26T09:20:16.727Z,5.50
2023-01-26T09:21:19.747Z,5.80
2023-01-26T09:22:21.983Z,5.45
2023-01-26T09:23:24.338Z,7.40
2023-01-26T09:24:26.730Z,5.75
2023-01-26T09:25:29.077Z,5.60
2023-01-26T09:26:31.732Z,7.60
2023-01-26T09:27:34.050Z,7.20
2023-01-26T09:28:36.537Z,7.55
2023-01-26T09:29:38.798Z,7.35
2023-01-26T09:30:41.440Z,6.90
2023-01-26T09:31:43.856Z,6.38
2023-01-26T09:32:46.282Z,7.70
2023-01-26T09:33:50.192Z,7.72
2023-01-26T09:34:52.455Z,6.70
2023-01-26T09:35:54.692Z,6.03
2023-01-26T09:36:56.938Z,6.70
2023-01-26T09:37:59.262Z,6.72
2023-01-26T09:39:01.950Z,5.57
2023-01-26T09:40:04.838Z,5.20
2023-01-26T09:41:31.004Z,5.43
2023-01-26T09:42:47.737Z,6.00
2023-01-26T09:43:53.196Z,5.57
2023-01-26T09:45:14.320Z,5.30
2023-01-26T09:46:25.959Z,5.20
2023-01-26T09:47:36.438Z,5.70
2023-01-26T09:49:07.441Z,6.10
2023-01-26T09:50:15.995Z,6.00
2023-01-26T09:51:44.411Z,6.30
2023-01-26T09:52:52.627Z,6.25
2023-01-26T09:53:59.435Z,8.05
2023-01-26T09:55:04.997Z,6.47
2023-01-26T09:56:15.574Z,6.22
2023-01-26T09:57:23.232Z,7.70
2023-01-26T09:58:38.254Z,6.30
2023-01-26T10:00:13.150Z,6.50
2023-01-26T10:01:36.257Z,6.30
2023-01-26T10:03:01.252Z,6.57
2023-01-26T10:04:13.205Z,6.70
2023-01-26T10:05:19.734Z,7.57
2023-01-26T10:06:29.133Z,7.50
2023-01-26T10:07:45.355Z,7.63
2023-01-26T10:08:49.719Z,6.80
2023-01-26T10:09:53.637Z,7.10
2023-01-26T10:11:03.292Z,6.95
2023-01-26T10:12:28.862Z,5.85
2023-01-26T10:13:31.527Z,5.93
2023-01-26T10:14:48.575Z,6.40
2023-01-26T10:16:10.572Z,6.30
2023-01-26T10:17:26.885Z,5.75
2023-01-26T10:18:35.195Z,6.20
2023-01-26T10:19:45.443Z,6.65
2023-01-26T10:20:56.816Z,6.80
2023-01-26T10:22:03.107Z,6.30
2023-01-26T10:23:25.615Z,6.05
2023-01-26T10:24:28.329Z,5.50
2023-01-26T10:25:36.156Z,6.88
2023-01-26T10:26:38.438Z,5.70
2023-01-26T10:27:40.723Z,5.40
2023-01-26T10:28:45.578Z,5.30
2023-01-26T10:29:47.791Z,5.15
2023-01-26T10:30:51.497Z,18.02
2023-01-26T10:31:55.360Z,16.98
2023-01-26T10:32:57.817Z,42.42
2023-01-26T10:34:09.023Z,65.20
2023-01-26T10:35:19.947Z,68.90
2023-01-26T10:36:22.722Z,76.20
2023-01-26T10:37:29.739Z,53.95
2023-01-26T10:38:38.018Z,43.70
2023-01-26T10:39:57.167Z,33.38
2023-01-26T10:41:03.414Z,42.22
2023-01-26T10:42:05.806Z,37.30
2023-01-26T10:43:17.821Z,30.85
2023-01-26T10:44:40.321Z,23.50
2023-01-26T10:45:47.647Z,13.25
2023-01-26T10:47:04.081Z,15.30
2023-01-26T10:48:16.169Z,13.50
2023-01-26T10:49:19.998Z,14.02
2023-01-26T10:50:24.693Z,12.63
2023-01-26T10:51:32.535Z,13.25
2023-01-26T10:52:34.771Z,20.13
2023-01-26T10:53:37.026Z,15.40
2023-01-26T10:54:39.802Z,18.58
2023-01-26T10:55:42.604Z,20.55
2023-01-26T10:56:58.677Z,21.27
2023-01-26T10:58:01.502Z,22.33
2023-01-26T10:59:08.665Z,22.13
2023-01-26T11:00:17.334Z,20.20
2023-01-26T11:01:23.258Z,19.55
2023-01-26T11:02:31.278Z,31.58
2023-01-26T11:03:33.608Z,53.13
2023-01-26T11:04:35.863Z,68.45
2023-01-26T11:05:38.365Z,72.43
2023-01-26T11:06:41.097Z,76.72
2023-01-26T11:07:45.816Z,66.47
2023-01-26T11:08:48.111Z,57.03
2023-01-26T11:09:53.578Z,51.40
2023-01-26T11:10:57.598Z,44.80
2023-01-26T11:12:02.770Z,41.03
2023-01-26T11:13:20.317Z,31.33
2023-01-26T11:14:22.668Z,28.58
2023-01-26T11:15:28.186Z,25.45
2023-01-26T11:16:30.655Z,26.67
2023-01-26T11:17:57.971Z,21.63
2023-01-26T11:19:18.343Z,20.48
2023-01-26T11:20:48.239Z,16.58
2023-01-26T11:22:05.446Z,18.02
2023-01-26T11:23:22.337Z,14.15
2023-01-26T11:24:31.503Z,14.18
2023-01-26T11:26:24.160Z,12.02
2023-01-26T11:27:51.611Z,11.45
2023-01-26T11:29:15.830Z,11.73
2023-01-26T11:30:41.754Z,9.95
2023-01-26T11:32:06.224Z,8.85
2023-01-26T11:33:29.263Z,8.27
2023-01-26T11:34:54.985Z,8.95
2023-01-26T11:36:29.368Z,7.80
2023-01-26T11:37:46.036Z,10.10
2023-01-26T11:39:03.506Z,8.85
2023-01-26T11:40:14.410Z,8.55
2023-01-26T11:41:38.017Z,7.95
2023-01-26T11:43:08.528Z,8.20
2023-01-26T11:44:31.333Z,8.02
2023-01-26T11:45:47.432Z,8.73
2023-01-26T11:47:15.450Z,7.68
2023-01-26T11:48:48.336Z,7.75
2023-01-26T11:50:24.567Z,8.05
2023-01-26T11:51:41.672Z,6.18
2023-01-26T11:52:55.480Z,6.35
2023-01-26T11:54:18.326Z,7.18
2023-01-26T11:55:55.652Z,9.40
2023-01-26T11:57:07.123Z,7.82
2023-01-26T11:58:48.351Z,7.95
2023-01-26T12:00:05.458Z,7.85
2023-01-26T12:01:28.923Z,9.10
2023-01-26T12:02:37.127Z,9.27
2023-01-26T12:03:52.751Z,8.25
2023-01-26T12:05:03.557Z,8.85
2023-01-26T12:06:08.582Z,8.00
2023-01-26T12:07:24.171Z,7.30
2023-01-26T12:09:02.449Z,9.20
2023-01-26T12:10:07.346Z,7.57
2023-01-26T12:11:33.812Z,7.90
2023-01-26T12:12:49.452Z,7.40
2023-01-26T12:14:02.259Z,7.03
2023-01-26T12:15:15.116Z,7.07
2023-01-26T12:16:27.139Z,7.43
2023-01-26T12:17:52.574Z,7.70
2023-01-26T12:19:11.147Z,6.28
2023-01-26T12:20:16.788Z,8.02
2023-01-26T12:21:20.382Z,7.82
2023-01-26T12:22:34.220Z,6.53
2023-01-26T12:23:51.603Z,7.95
2023-01-26T12:25:20.219Z,7.25
2023-01-26T12:26:25.571Z,6.78
2023-01-26T12:27:43.669Z,8.55
2023-01-26T12:29:06.436Z,10.32
2023-01-26T12:30:41.251Z,9.30
2023-01-26T12:31:55.574Z,8.70
2023-01-26T12:32:58.369Z,8.38
2023-01-26T12:34:00.930Z,7.88
2023-01-26T12:35:11.482Z,9.25
2023-01-26T12:36:34.668Z,8.40
2023-01-26T12:37:57.620Z,9.32
2023-01-26T12:39:39.725Z,9.05
2023-01-26T12:41:16.757Z,8.40
2023-01-26T12:42:43.626Z,7.93
2023-01-26T12:44:06.564Z,7.30
2023-01-26T12:45:18.685Z,9.18
2023-01-26T12:46:23.217Z,8.93
2023-01-26T12:47:45.234Z,7.30
2023-01-26T12:48:54.346Z,11.10
2023-01-26T12:50:05.925Z,8.98
2023-01-26T12:51:17.345Z,8.20
2023-01-26T12:52:31.950Z,9.85
2023-01-26T12:53:52.835Z,9.77
2023-01-26T12:55:01.339Z,9.25
2023-01-26T12:56:39.862Z,8.55
2023-01-26T12:57:50.891Z,7.40
2023-01-26T12:58:57.267Z,8.18
2023-01-26T13:00:18.735Z,7.45
2023-01-26T13:01:23.667Z,9.35
2023-01-26T13:02:31.743Z,10.00
2023-01-26T13:03:41.893Z,10.52
2023-01-26T13:04:47.874Z,10.13
2023-01-26T13:05:55.345Z,10.63
2023-01-26T13:07:24.282Z,9.45
2023-01-26T13:08:32.102Z,10.95
2023-01-26T13:09:34.385Z,13.75
2023-01-26T13:10:50.010Z,12.32
2023-01-26T13:11:59.941Z,14.40
2023-01-26T13:13:22.112Z,14.82
2023-01-26T13:14:32.129Z,16.83
2023-01-26T13:15:34.543Z,15.55
2023-01-26T13:16:36.825Z,15.38
2023-01-26T13:17:52.469Z,15.73
2023-01-26T13:18:59.766Z,14.63
2023-01-26T13:20:16.262Z,12.85
2023-01-26T13:21:40.275Z,13.90
2023-01-26T13:22:42.661Z,14.40
2023-01-26T13:23:45.327Z,14.90
2023-01-26T13:25:18.810Z,14.35
2023-01-26T13:26:45.771Z,13.00
2023-01-26T13:27:57.298Z,12.52
2023-01-26T13:29:51.713Z,11.85
2023-01-26T13:31:05.287Z,11.60
2023-01-26T13:32:10.059Z,11.50
2023-01-26T13:33:16.207Z,9.20
2023-01-26T13:34:39.427Z,9.93
2023-01-26T13:35:42.380Z,9.60
2023-01-26T13:36:47.869Z,10.73
2023-01-26T13:37:57.080Z,11.07
2023-01-26T13:39:04.366Z,9.90
2023-01-26T13:40:19.096Z,8.43
2023-01-26T13:41:22.184Z,9.13
2023-01-26T13:42:38.701Z,9.57
2023-01-26T13:43:46.653Z,10.00
2023-01-26T13:44:58.978Z,8.52
2023-01-26T13:46:32.263Z,9.70
2023-01-26T13:47:40.659Z,10.23
2023-01-26T13:48:50.144Z,8.80
2023-01-26T13:49:52.660Z,9.38
2023-01-26T13:51:00.618Z,8.73
2023-01-26T13:52:04.152Z,8.57
2023-01-26T13:53:25.229Z,8.80
2023-01-26T13:54:27.577Z,7.37
2023-01-26T13:55:34.034Z,8.18
2023-01-26T13:56:39.048Z,9.10
2023-01-26T13:57:41.362Z,7.25
2023-01-26T13:58:43.621Z,7.40
2023-01-26T13:59:56.504Z,7.78
2023-01-26T14:01:04.908Z,7.25
2023-01-26T14:02:22.592Z,8.15
2023-01-26T14:03:24.906Z,6.95
2023-01-26T14:04:28.200Z,7.85
2023-01-26T14:05:31.946Z,8.90
2023-01-26T14:06:36.964Z,7.50
2023-01-26T14:07:42.246Z,7.35
2023-01-26T14:09:04.216Z,7.65
2023-01-26T14:10:08.041Z,6.35
2023-01-26T14:11:20.009Z,7.28
2023-01-26T14:12:36.020Z,5.90
2023-01-26T14:13:38.959Z,6.95
2023-01-26T14:14:41.451Z,6.10
2023-01-26T14:15:43.783Z,6.70
2023-01-26T14:16:46.075Z,7.30
2023-01-26T14:17:59.878Z,5.55
2023-01-26T14:19:17.687Z,6.45
2023-01-26T14:20:31.931Z,5.93
2023-01-26T14:21:46.567Z,5.95
2023-01-26T14:23:10.281Z,6.63
2023-01-26T14:24:12.670Z,6.13
2023-01-26T14:25:20.540Z,6.22
2023-01-26T14:26:32.870Z,6.57
2023-01-26T14:27:40.726Z,6.68
2023-01-26T14:28:43.895Z,6.32
2023-01-26T14:29:47.687Z,6.70
2023-01-26T14:30:58.661Z,6.03
2023-01-26T14:32:01.276Z,6.63
2023-01-26T14:33:15.337Z,6.75
2023-01-26T14:34:23.770Z,6.80
2023-01-26T14:35:26.230Z,6.65
2023-01-26T14:36:33.978Z,6.28
2023-01-26T14:37:36.313Z,6.80
2023-01-26T14:38:50.451Z,7.10
2023-01-26T14:40:11.211Z,7.03
2023-01-26T14:41:28.658Z,6.95
2023-01-26T14:42:31.007Z,6.65
2023-01-26T14:43:33.289Z,7.50
2023-01-26T14:44:35.555Z,7.55
2023-01-26T14:45:39.414Z,7.18
2023-01-26T14:47:00.269Z,7.22
2023-01-26T14:48:07.419Z,7.22
2023-01-26T14:49:14.982Z,8.18
2023-01-26T14:50:28.267Z,7.82
2023-01-26T14:51:32.377Z,7.20
2023-01-26T14:52:40.046Z,8.85
2023-01-26T14:53:56.843Z,7.40
2023-01-26T14:55:06.384Z,6.72
2023-01-26T14:56:18.750Z,8.45
2023-01-26T14:57:24.126Z,7.85
2023-01-26T14:58:32.852Z,6.43
2023-01-26T14:59:40.436Z,6.65
2023-01-26T15:00:47.027Z,7.15